sensor_id;sensor_type;location;lat;lon;timestamp;temperature;humidity
24162;DHT22;12318;51.262;7.066;2022-08-19T00:01:54;18.70;99.90
24162;DHT22;12318;51.262;7.066;2022-08-19T00:04:27;18.70;99.90
24162;DHT22;12318;51.262;7.066;2022-08-19T00:06:53;18.70;99.90
24162;DHT22;12318;51.262;7.066;2022-08-19T00:09:21;18.80;99.90
24162;DHT22;12318;51.262;7.066;2022-08-19T00:11:47;18.80;99.90
24162;DHT22;12318;51.262;7.066;2022-08-19T00:14:15;18.70;99.90
24162;DHT22;12318;51.262;7.066;2022-08-19T00:16:43;18.60;99.90
24162;DHT22;12318;51.262;7.066;2022-08-19T00:19:09;18.60;99.90
24162;DHT22;12318;51.262;7.066;2022-08-19T00:21:35;18.70;99.90
24162;DHT22;12318;51.262;7.066;2022-08-19T00:24:09;18.80;99.90
24162;DHT22;12318;51.262;7.066;2022-08-19T00:26:36;18.70;99.90
24162;DHT22;12318;51.262;7.066;2022-08-19T00:29:02;18.50;99.90
24162;DHT22;12318;51.262;7.066;2022-08-19T00:31:28;18.70;99.90
24162;DHT22;12318;51.262;7.066;2022-08-19T00:33:54;18.50;99.90
24162;DHT22;12318;51.262;7.066;2022-08-19T00:36:20;18.20;99.90
24162;DHT22;12318;51.262;7.066;2022-08-19T00:38:46;18.20;99.90
24162;DHT22;12318;51.262;7.066;2022-08-19T00:41:14;18.20;99.90
24162;DHT22;12318;51.262;7.066;2022-08-19T00:43:40;18.20;99.90
24162;DHT22;12318;51.262;7.066;2022-08-19T00:46:06;18.20;99.90
24162;DHT22;12318;51.262;7.066;2022-08-19T00:48:33;18.20;99.90
24162;DHT22;12318;51.262;7.066;2022-08-19T00:50:59;18.30;99.90
24162;DHT22;12318;51.262;7.066;2022-08-19T00:53:29;18.30;99.90
24162;DHT22;12318;51.262;7.066;2022-08-19T00:55:58;18.30;99.90
24162;DHT22;12318;51.262;7.066;2022-08-19T00:58:29;18.30;99.90
24162;DHT22;12318;51.262;7.066;2022-08-19T01:00:55;18.30;99.90
24162;DHT22;12318;51.262;7.066;2022-08-19T01:03:22;18.30;99.90
24162;DHT22;12318;51.262;7.066;2022-08-19T01:05:49;18.30;99.90
24162;DHT22;12318;51.262;7.066;2022-08-19T01:08:17;18.40;99.90
24162;DHT22;12318;51.262;7.066;2022-08-19T01:10:56;18.30;99.90
24162;DHT22;12318;51.262;7.066;2022-08-19T01:13:25;18.20;99.90
24162;DHT22;12318;51.262;7.066;2022-08-19T01:15:56;18.30;99.90
24162;DHT22;12318;51.262;7.066;2022-08-19T01:18:23;18.30;99.90
24162;DHT22;12318;51.262;7.066;2022-08-19T01:20:51;18.30;99.90
24162;DHT22;12318;51.262;7.066;2022-08-19T01:23:17;18.30;99.90
24162;DHT22;12318;51.262;7.066;2022-08-19T01:25:46;18.40;99.90
24162;DHT22;12318;51.262;7.066;2022-08-19T01:28:20;18.20;99.90
24162;DHT22;12318;51.262;7.066;2022-08-19T01:30:46;18.30;99.90
24162;DHT22;12318;51.262;7.066;2022-08-19T01:33:13;18.60;99.90
24162;DHT22;12318;51.262;7.066;2022-08-19T01:35:39;18.50;99.90
24162;DHT22;12318;51.262;7.066;2022-08-19T01:38:07;18.50;99.90
24162;DHT22;12318;51.262;7.066;2022-08-19T01:40:38;18.50;99.90
24162;DHT22;12318;51.262;7.066;2022-08-19T01:43:07;18.50;99.90
24162;DHT22;12318;51.262;7.066;2022-08-19T01:45:34;18.30;99.90
24162;DHT22;12318;51.262;7.066;2022-08-19T01:48:01;18.30;99.90
24162;DHT22;12318;51.262;7.066;2022-08-19T01:50:28;18.20;99.90
24162;DHT22;12318;51.262;7.066;2022-08-19T01:52:53;18.20;99.90
24162;DHT22;12318;51.262;7.066;2022-08-19T01:55:21;18.20;99.90
24162;DHT22;12318;51.262;7.066;2022-08-19T01:57:52;17.90;99.90
24162;DHT22;12318;51.262;7.066;2022-08-19T02:00:23;17.60;99.90
24162;DHT22;12318;51.262;7.066;2022-08-19T02:02:49;17.50;99.90
24162;DHT22;12318;51.262;7.066;2022-08-19T02:05:15;17.50;99.90
24162;DHT22;12318;51.262;7.066;2022-08-19T02:07:42;17.50;99.90
24162;DHT22;12318;51.262;7.066;2022-08-19T02:10:12;17.60;99.90
24162;DHT22;12318;51.262;7.066;2022-08-19T02:12:38;17.70;99.90
24162;DHT22;12318;51.262;7.066;2022-08-19T02:15:04;17.70;99.90
24162;DHT22;12318;51.262;7.066;2022-08-19T02:17:34;17.60;99.90
24162;DHT22;12318;51.262;7.066;2022-08-19T02:19:59;17.50;99.90
24162;DHT22;12318;51.262;7.066;2022-08-19T02:22:26;17.40;99.90
24162;DHT22;12318;51.262;7.066;2022-08-19T02:24:52;17.40;99.90
24162;DHT22;12318;51.262;7.066;2022-08-19T02:27:18;17.40;99.90
24162;DHT22;12318;51.262;7.066;2022-08-19T02:29:46;17.50;99.90
24162;DHT22;12318;51.262;7.066;2022-08-19T02:32:12;17.50;99.90
24162;DHT22;12318;51.262;7.066;2022-08-19T02:34:39;17.50;99.90
24162;DHT22;12318;51.262;7.066;2022-08-19T02:37:04;17.50;99.90
24162;DHT22;12318;51.262;7.066;2022-08-19T02:39:30;17.50;99.90
24162;DHT22;12318;51.262;7.066;2022-08-19T02:41:56;17.40;99.90
24162;DHT22;12318;51.262;7.066;2022-08-19T02:44:22;17.40;99.90
24162;DHT22;12318;51.262;7.066;2022-08-19T02:46:48;17.40;99.90
24162;DHT22;12318;51.262;7.066;2022-08-19T02:49:15;17.40;99.90
24162;DHT22;12318;51.262;7.066;2022-08-19T02:51:43;17.40;99.90
24162;DHT22;12318;51.262;7.066;2022-08-19T02:54:10;17.50;99.90
24162;DHT22;12318;51.262;7.066;2022-08-19T02:56:38;17.50;99.90
24162;DHT22;12318;51.262;7.066;2022-08-19T02:59:04;17.50;99.90
24162;DHT22;12318;51.262;7.066;2022-08-19T03:01:33;17.50;99.90
24162;DHT22;12318;51.262;7.066;2022-08-19T03:04:01;17.40;99.90
24162;DHT22;12318;51.262;7.066;2022-08-19T03:06:28;17.30;99.90
24162;DHT22;12318;51.262;7.066;2022-08-19T03:08:55;17.30;99.90
24162;DHT22;12318;51.262;7.066;2022-08-19T03:11:29;17.30;99.90
24162;DHT22;12318;51.262;7.066;2022-08-19T03:13:56;17.50;99.90
24162;DHT22;12318;51.262;7.066;2022-08-19T03:16:25;17.50;99.90
24162;DHT22;12318;51.262;7.066;2022-08-19T03:18:52;17.40;99.90
24162;DHT22;12318;51.262;7.066;2022-08-19T03:21:20;17.30;99.90
24162;DHT22;12318;51.262;7.066;2022-08-19T03:23:46;17.20;99.90
24162;DHT22;12318;51.262;7.066;2022-08-19T03:26:12;17.20;99.90
24162;DHT22;12318;51.262;7.066;2022-08-19T03:28:40;17.30;99.90
24162;DHT22;12318;51.262;7.066;2022-08-19T03:31:09;17.30;99.90
24162;DHT22;12318;51.262;7.066;2022-08-19T03:33:35;17.30;99.90
24162;DHT22;12318;51.262;7.066;2022-08-19T03:36:12;17.20;99.90
24162;DHT22;12318;51.262;7.066;2022-08-19T03:38:41;17.20;99.90
24162;DHT22;12318;51.262;7.066;2022-08-19T03:41:10;17.10;99.90
24162;DHT22;12318;51.262;7.066;2022-08-19T03:43:39;16.90;99.90
24162;DHT22;12318;51.262;7.066;2022-08-19T03:46:08;16.70;99.90
24162;DHT22;12318;51.262;7.066;2022-08-19T03:48:35;16.70;99.90
24162;DHT22;12318;51.262;7.066;2022-08-19T03:51:01;16.80;99.90
24162;DHT22;12318;51.262;7.066;2022-08-19T03:53:28;16.80;99.90
24162;DHT22;12318;51.262;7.066;2022-08-19T03:55:55;16.90;99.90
24162;DHT22;12318;51.262;7.066;2022-08-19T03:58:22;16.90;99.90
24162;DHT22;12318;51.262;7.066;2022-08-19T04:00:48;17.00;99.90
24162;DHT22;12318;51.262;7.066;2022-08-19T04:03:15;17.00;99.90
24162;DHT22;12318;51.262;7.066;2022-08-19T04:05:40;17.00;99.90
24162;DHT22;12318;51.262;7.066;2022-08-19T04:08:06;16.90;99.90
24162;DHT22;12318;51.262;7.066;2022-08-19T04:10:36;16.80;99.90
24162;DHT22;12318;51.262;7.066;2022-08-19T04:13:03;16.70;99.90
24162;DHT22;12318;51.262;7.066;2022-08-19T04:15:30;16.50;99.90
24162;DHT22;12318;51.262;7.066;2022-08-19T04:18:01;16.50;99.90
24162;DHT22;12318;51.262;7.066;2022-08-19T04:20:26;16.50;99.90
24162;DHT22;12318;51.262;7.066;2022-08-19T04:22:52;16.60;99.90
24162;DHT22;12318;51.262;7.066;2022-08-19T04:25:18;16.70;99.90
24162;DHT22;12318;51.262;7.066;2022-08-19T04:27:43;16.70;99.90
24162;DHT22;12318;51.262;7.066;2022-08-19T04:30:12;16.80;99.90
24162;DHT22;12318;51.262;7.066;2022-08-19T04:32:38;16.80;99.90
24162;DHT22;12318;51.262;7.066;2022-08-19T04:35:04;16.90;99.90
24162;DHT22;12318;51.262;7.066;2022-08-19T04:37:30;16.70;99.90
24162;DHT22;12318;51.262;7.066;2022-08-19T04:39:59;16.70;99.90
24162;DHT22;12318;51.262;7.066;2022-08-19T04:42:43;16.80;99.90
24162;DHT22;12318;51.262;7.066;2022-08-19T04:45:14;16.80;99.90
24162;DHT22;12318;51.262;7.066;2022-08-19T04:47:41;16.80;99.90
24162;DHT22;12318;51.262;7.066;2022-08-19T04:50:08;16.90;99.90
24162;DHT22;12318;51.262;7.066;2022-08-19T04:52:39;16.90;99.90
24162;DHT22;12318;51.262;7.066;2022-08-19T04:55:12;16.90;99.90
24162;DHT22;12318;51.262;7.066;2022-08-19T04:57:38;17.00;99.90
24162;DHT22;12318;51.262;7.066;2022-08-19T05:00:10;17.10;99.90
24162;DHT22;12318;51.262;7.066;2022-08-19T05:02:36;17.00;99.90
24162;DHT22;12318;51.262;7.066;2022-08-19T05:05:02;17.00;99.90
24162;DHT22;12318;51.262;7.066;2022-08-19T05:07:28;17.10;99.90
24162;DHT22;12318;51.262;7.066;2022-08-19T05:09:54;16.90;99.90
24162;DHT22;12318;51.262;7.066;2022-08-19T05:12:21;16.90;99.90
24162;DHT22;12318;51.262;7.066;2022-08-19T05:14:47;16.90;99.90
24162;DHT22;12318;51.262;7.066;2022-08-19T05:17:14;17.00;99.90
24162;DHT22;12318;51.262;7.066;2022-08-19T05:19:40;16.80;99.90
24162;DHT22;12318;51.262;7.066;2022-08-19T05:22:25;16.70;99.90
24162;DHT22;12318;51.262;7.066;2022-08-19T05:25:05;16.90;99.90
24162;DHT22;12318;51.262;7.066;2022-08-19T05:27:32;16.80;99.90
24162;DHT22;12318;51.262;7.066;2022-08-19T05:29:58;16.70;99.90
24162;DHT22;12318;51.262;7.066;2022-08-19T05:32:25;16.70;99.90
24162;DHT22;12318;51.262;7.066;2022-08-19T05:34:50;16.70;99.90
24162;DHT22;12318;51.262;7.066;2022-08-19T05:37:16;16.80;99.90
24162;DHT22;12318;51.262;7.066;2022-08-19T05:39:42;16.80;99.90
24162;DHT22;12318;51.262;7.066;2022-08-19T05:42:10;16.80;99.90
24162;DHT22;12318;51.262;7.066;2022-08-19T05:44:40;16.70;99.90
24162;DHT22;12318;51.262;7.066;2022-08-19T05:47:11;16.70;99.90
24162;DHT22;12318;51.262;7.066;2022-08-19T05:49:37;16.90;99.90
24162;DHT22;12318;51.262;7.066;2022-08-19T05:52:09;16.90;99.90
24162;DHT22;12318;51.262;7.066;2022-08-19T05:54:37;17.10;99.90
24162;DHT22;12318;51.262;7.066;2022-08-19T05:57:05;17.20;99.90
24162;DHT22;12318;51.262;7.066;2022-08-19T05:59:32;17.50;99.90
24162;DHT22;12318;51.262;7.066;2022-08-19T06:01:58;17.60;99.90
24162;DHT22;12318;51.262;7.066;2022-08-19T06:04:25;17.80;99.90
24162;DHT22;12318;51.262;7.066;2022-08-19T06:06:52;17.80;99.90
24162;DHT22;12318;51.262;7.066;2022-08-19T06:09:21;17.80;99.90
24162;DHT22;12318;51.262;7.066;2022-08-19T06:11:50;18.00;99.90
24162;DHT22;12318;51.262;7.066;2022-08-19T06:14:21;17.90;99.90
24162;DHT22;12318;51.262;7.066;2022-08-19T06:16:48;17.90;99.90
24162;DHT22;12318;51.262;7.066;2022-08-19T06:19:18;18.00;99.90
24162;DHT22;12318;51.262;7.066;2022-08-19T06:21:46;18.00;99.90
24162;DHT22;12318;51.262;7.066;2022-08-19T06:24:14;18.00;99.90
24162;DHT22;12318;51.262;7.066;2022-08-19T06:26:43;17.80;99.90
24162;DHT22;12318;51.262;7.066;2022-08-19T06:29:11;17.70;99.90
24162;DHT22;12318;51.262;7.066;2022-08-19T06:31:40;17.60;99.90
24162;DHT22;12318;51.262;7.066;2022-08-19T06:34:06;17.50;99.90
24162;DHT22;12318;51.262;7.066;2022-08-19T06:36:34;17.50;99.90
24162;DHT22;12318;51.262;7.066;2022-08-19T06:39:06;17.50;99.90
24162;DHT22;12318;51.262;7.066;2022-08-19T06:41:36;17.50;99.90
24162;DHT22;12318;51.262;7.066;2022-08-19T06:44:04;17.70;99.90
24162;DHT22;12318;51.262;7.066;2022-08-19T06:46:30;17.80;99.90
24162;DHT22;12318;51.262;7.066;2022-08-19T06:48:57;17.90;99.90
24162;DHT22;12318;51.262;7.066;2022-08-19T06:51:23;17.80;99.90
24162;DHT22;12318;51.262;7.066;2022-08-19T06:53:51;17.70;99.90
24162;DHT22;12318;51.262;7.066;2022-08-19T06:56:24;17.90;99.90
24162;DHT22;12318;51.262;7.066;2022-08-19T06:58:51;18.00;99.90
24162;DHT22;12318;51.262;7.066;2022-08-19T07:01:19;18.10;99.90
24162;DHT22;12318;51.262;7.066;2022-08-19T07:03:44;18.30;99.90
24162;DHT22;12318;51.262;7.066;2022-08-19T07:06:14;18.40;99.90
24162;DHT22;12318;51.262;7.066;2022-08-19T07:08:47;18.50;99.90
24162;DHT22;12318;51.262;7.066;2022-08-19T07:11:17;18.60;99.90
24162;DHT22;12318;51.262;7.066;2022-08-19T07:13:46;18.60;99.90
24162;DHT22;12318;51.262;7.066;2022-08-19T07:16:16;18.80;99.90
24162;DHT22;12318;51.262;7.066;2022-08-19T07:18:43;18.70;99.90
24162;DHT22;12318;51.262;7.066;2022-08-19T07:21:20;18.70;99.90
24162;DHT22;12318;51.262;7.066;2022-08-19T07:23:50;18.70;99.90
24162;DHT22;12318;51.262;7.066;2022-08-19T07:26:29;18.80;99.90
24162;DHT22;12318;51.262;7.066;2022-08-19T07:28:57;18.90;99.90
24162;DHT22;12318;51.262;7.066;2022-08-19T07:31:27;18.90;99.90
24162;DHT22;12318;51.262;7.066;2022-08-19T07:33:54;19.00;99.90
24162;DHT22;12318;51.262;7.066;2022-08-19T07:36:26;19.10;99.90
24162;DHT22;12318;51.262;7.066;2022-08-19T07:39:00;19.10;99.90
24162;DHT22;12318;51.262;7.066;2022-08-19T07:41:27;19.20;99.90
24162;DHT22;12318;51.262;7.066;2022-08-19T07:44:01;19.20;99.90
24162;DHT22;12318;51.262;7.066;2022-08-19T07:46:32;19.20;99.90
24162;DHT22;12318;51.262;7.066;2022-08-19T07:48:58;19.30;99.90
24162;DHT22;12318;51.262;7.066;2022-08-19T07:51:24;19.30;99.90
24162;DHT22;12318;51.262;7.066;2022-08-19T07:53:50;19.40;99.90
24162;DHT22;12318;51.262;7.066;2022-08-19T07:56:17;19.50;99.90
24162;DHT22;12318;51.262;7.066;2022-08-19T07:58:48;19.60;99.90
24162;DHT22;12318;51.262;7.066;2022-08-19T08:01:17;19.80;99.90
24162;DHT22;12318;51.262;7.066;2022-08-19T08:03:43;20.00;99.90
24162;DHT22;12318;51.262;7.066;2022-08-19T08:06:28;20.20;99.90
24162;DHT22;12318;51.262;7.066;2022-08-19T08:09:26;20.30;99.90
24162;DHT22;12318;51.262;7.066;2022-08-19T08:11:55;20.40;99.90
24162;DHT22;12318;51.262;7.066;2022-08-19T08:14:50;20.30;99.90
24162;DHT22;12318;51.262;7.066;2022-08-19T08:17:19;20.30;99.90
24162;DHT22;12318;51.262;7.066;2022-08-19T08:19:50;20.00;99.90
24162;DHT22;12318;51.262;7.066;2022-08-19T08:22:20;20.20;99.90
24162;DHT22;12318;51.262;7.066;2022-08-19T08:25:07;20.40;99.90
24162;DHT22;12318;51.262;7.066;2022-08-19T08:27:37;20.60;99.90
24162;DHT22;12318;51.262;7.066;2022-08-19T08:30:17;20.80;99.90
24162;DHT22;12318;51.262;7.066;2022-08-19T08:32:43;20.80;99.90
24162;DHT22;12318;51.262;7.066;2022-08-19T08:35:12;20.90;99.90
24162;DHT22;12318;51.262;7.066;2022-08-19T08:37:38;21.00;99.90
24162;DHT22;12318;51.262;7.066;2022-08-19T08:40:16;21.00;99.90
24162;DHT22;12318;51.262;7.066;2022-08-19T08:43:11;21.00;99.90
24162;DHT22;12318;51.262;7.066;2022-08-19T08:45:41;21.10;99.90
24162;DHT22;12318;51.262;7.066;2022-08-19T08:48:20;21.00;99.90
24162;DHT22;12318;51.262;7.066;2022-08-19T08:50:49;21.20;99.90
24162;DHT22;12318;51.262;7.066;2022-08-19T08:53:18;21.30;99.90
24162;DHT22;12318;51.262;7.066;2022-08-19T08:55:45;21.40;99.90
24162;DHT22;12318;51.262;7.066;2022-08-19T08:58:14;21.60;99.90
24162;DHT22;12318;51.262;7.066;2022-08-19T09:00:45;21.70;99.90
24162;DHT22;12318;51.262;7.066;2022-08-19T09:03:24;21.70;99.90
24162;DHT22;12318;51.262;7.066;2022-08-19T09:09:14;22.30;99.90
24162;DHT22;12318;51.262;7.066;2022-08-19T09:14:37;22.10;99.90
24162;DHT22;12318;51.262;7.066;2022-08-19T09:17:08;22.40;99.90
24162;DHT22;12318;51.262;7.066;2022-08-19T09:19:46;22.40;99.90
24162;DHT22;12318;51.262;7.066;2022-08-19T09:22:13;22.60;99.90
24162;DHT22;12318;51.262;7.066;2022-08-19T09:24:38;22.90;99.90
24162;DHT22;12318;51.262;7.066;2022-08-19T09:27:05;23.00;99.90
24162;DHT22;12318;51.262;7.066;2022-08-19T09:29:30;22.90;99.90
24162;DHT22;12318;51.262;7.066;2022-08-19T09:31:56;22.90;99.90
24162;DHT22;12318;51.262;7.066;2022-08-19T09:34:22;22.70;99.90
24162;DHT22;12318;51.262;7.066;2022-08-19T09:36:49;22.90;99.90
24162;DHT22;12318;51.262;7.066;2022-08-19T09:39:18;22.90;99.90
24162;DHT22;12318;51.262;7.066;2022-08-19T09:41:44;22.90;99.90
24162;DHT22;12318;51.262;7.066;2022-08-19T09:44:10;23.00;99.90
24162;DHT22;12318;51.262;7.066;2022-08-19T09:46:38;23.20;99.90
24162;DHT22;12318;51.262;7.066;2022-08-19T09:49:04;23.10;99.90
24162;DHT22;12318;51.262;7.066;2022-08-19T09:51:31;23.10;99.90
24162;DHT22;12318;51.262;7.066;2022-08-19T09:54:02;23.00;99.90
24162;DHT22;12318;51.262;7.066;2022-08-19T09:56:29;23.10;99.90
24162;DHT22;12318;51.262;7.066;2022-08-19T09:58:58;23.30;99.90
24162;DHT22;12318;51.262;7.066;2022-08-19T10:01:26;23.50;99.90
24162;DHT22;12318;51.262;7.066;2022-08-19T10:03:54;23.40;99.90
24162;DHT22;12318;51.262;7.066;2022-08-19T10:06:22;23.30;99.90
24162;DHT22;12318;51.262;7.066;2022-08-19T10:08:50;23.30;99.90
24162;DHT22;12318;51.262;7.066;2022-08-19T10:11:18;23.30;99.90
24162;DHT22;12318;51.262;7.066;2022-08-19T10:13:44;23.30;99.90
24162;DHT22;12318;51.262;7.066;2022-08-19T10:16:15;23.30;99.90
24162;DHT22;12318;51.262;7.066;2022-08-19T10:18:42;23.50;99.90
24162;DHT22;12318;51.262;7.066;2022-08-19T10:21:27;23.60;99.90
24162;DHT22;12318;51.262;7.066;2022-08-19T10:23:55;23.70;99.90
24162;DHT22;12318;51.262;7.066;2022-08-19T10:26:25;23.70;99.90
24162;DHT22;12318;51.262;7.066;2022-08-19T10:28:52;23.50;99.90
24162;DHT22;12318;51.262;7.066;2022-08-19T10:31:28;23.60;99.90
24162;DHT22;12318;51.262;7.066;2022-08-19T10:33:56;23.70;99.90
24162;DHT22;12318;51.262;7.066;2022-08-19T10:36:30;23.60;99.90
24162;DHT22;12318;51.262;7.066;2022-08-19T10:38:59;23.60;99.90
24162;DHT22;12318;51.262;7.066;2022-08-19T10:41:31;23.80;99.90
24162;DHT22;12318;51.262;7.066;2022-08-19T10:44:08;24.00;99.90
24162;DHT22;12318;51.262;7.066;2022-08-19T10:46:40;24.20;99.90
24162;DHT22;12318;51.262;7.066;2022-08-19T10:49:08;24.20;99.90
24162;DHT22;12318;51.262;7.066;2022-08-19T10:51:35;24.10;99.90
24162;DHT22;12318;51.262;7.066;2022-08-19T10:54:20;24.30;99.90
24162;DHT22;12318;51.262;7.066;2022-08-19T10:56:46;24.40;99.90
24162;DHT22;12318;51.262;7.066;2022-08-19T10:59:25;24.20;99.90
24162;DHT22;12318;51.262;7.066;2022-08-19T11:01:53;24.00;99.90
24162;DHT22;12318;51.262;7.066;2022-08-19T11:04:19;24.10;99.90
24162;DHT22;12318;51.262;7.066;2022-08-19T11:06:47;24.30;99.90
24162;DHT22;12318;51.262;7.066;2022-08-19T11:09:22;24.40;99.90
24162;DHT22;12318;51.262;7.066;2022-08-19T11:11:52;24.50;99.90
24162;DHT22;12318;51.262;7.066;2022-08-19T11:14:19;24.70;99.90
24162;DHT22;12318;51.262;7.066;2022-08-19T11:16:49;24.90;99.90
24162;DHT22;12318;51.262;7.066;2022-08-19T11:19:16;24.90;99.90
24162;DHT22;12318;51.262;7.066;2022-08-19T11:21:46;24.70;99.90
24162;DHT22;12318;51.262;7.066;2022-08-19T11:24:18;24.60;99.90
24162;DHT22;12318;51.262;7.066;2022-08-19T11:26:46;24.40;99.90
24162;DHT22;12318;51.262;7.066;2022-08-19T11:29:16;24.40;99.90
24162;DHT22;12318;51.262;7.066;2022-08-19T11:31:44;24.50;99.90
24162;DHT22;12318;51.262;7.066;2022-08-19T11:34:13;24.70;99.90
24162;DHT22;12318;51.262;7.066;2022-08-19T11:36:42;24.70;99.90
24162;DHT22;12318;51.262;7.066;2022-08-19T11:39:13;24.90;99.90
24162;DHT22;12318;51.262;7.066;2022-08-19T11:41:39;25.20;99.90
24162;DHT22;12318;51.262;7.066;2022-08-19T11:44:06;25.50;99.90
24162;DHT22;12318;51.262;7.066;2022-08-19T11:46:34;25.30;99.90
24162;DHT22;12318;51.262;7.066;2022-08-19T11:49:01;25.00;99.90
24162;DHT22;12318;51.262;7.066;2022-08-19T11:51:29;25.00;99.90
24162;DHT22;12318;51.262;7.066;2022-08-19T11:53:56;25.00;99.90
24162;DHT22;12318;51.262;7.066;2022-08-19T11:56:23;24.90;99.90
24162;DHT22;12318;51.262;7.066;2022-08-19T11:58:50;24.90;99.90
24162;DHT22;12318;51.262;7.066;2022-08-19T12:01:18;25.10;99.90
24162;DHT22;12318;51.262;7.066;2022-08-19T12:03:48;25.10;99.90
24162;DHT22;12318;51.262;7.066;2022-08-19T12:06:19;24.80;99.90
24162;DHT22;12318;51.262;7.066;2022-08-19T12:08:45;24.90;99.90
24162;DHT22;12318;51.262;7.066;2022-08-19T12:11:14;24.90;99.90
24162;DHT22;12318;51.262;7.066;2022-08-19T12:13:40;25.00;99.90
24162;DHT22;12318;51.262;7.066;2022-08-19T12:16:15;25.00;99.90
24162;DHT22;12318;51.262;7.066;2022-08-19T12:18:41;24.90;99.90
24162;DHT22;12318;51.262;7.066;2022-08-19T12:21:09;24.90;99.90
24162;DHT22;12318;51.262;7.066;2022-08-19T12:23:36;25.00;99.90
24162;DHT22;12318;51.262;7.066;2022-08-19T12:26:03;24.90;99.90
24162;DHT22;12318;51.262;7.066;2022-08-19T12:28:28;25.10;99.90
24162;DHT22;12318;51.262;7.066;2022-08-19T12:30:56;25.20;99.90
24162;DHT22;12318;51.262;7.066;2022-08-19T12:33:22;25.20;99.90
24162;DHT22;12318;51.262;7.066;2022-08-19T12:35:51;25.30;99.90
24162;DHT22;12318;51.262;7.066;2022-08-19T12:38:17;25.20;99.90
24162;DHT22;12318;51.262;7.066;2022-08-19T12:40:47;25.20;99.90
24162;DHT22;12318;51.262;7.066;2022-08-19T12:43:14;25.20;99.90
24162;DHT22;12318;51.262;7.066;2022-08-19T12:45:41;25.00;99.90
24162;DHT22;12318;51.262;7.066;2022-08-19T12:48:14;25.00;99.90
24162;DHT22;12318;51.262;7.066;2022-08-19T12:50:41;25.00;99.90
24162;DHT22;12318;51.262;7.066;2022-08-19T12:53:07;25.00;99.90
24162;DHT22;12318;51.262;7.066;2022-08-19T12:55:33;25.00;99.90
24162;DHT22;12318;51.262;7.066;2022-08-19T12:58:05;24.90;99.90
24162;DHT22;12318;51.262;7.066;2022-08-19T13:00:31;25.00;99.90
24162;DHT22;12318;51.262;7.066;2022-08-19T13:02:58;25.30;99.90
24162;DHT22;12318;51.262;7.066;2022-08-19T13:05:27;25.60;99.90
24162;DHT22;12318;51.262;7.066;2022-08-19T13:08:04;25.90;99.90
24162;DHT22;12318;51.262;7.066;2022-08-19T13:10:33;25.80;99.90
24162;DHT22;12318;51.262;7.066;2022-08-19T13:13:04;25.70;99.90
24162;DHT22;12318;51.262;7.066;2022-08-19T13:15:34;25.70;99.90
24162;DHT22;12318;51.262;7.066;2022-08-19T13:18:13;25.50;99.90
24162;DHT22;12318;51.262;7.066;2022-08-19T13:20:39;25.50;99.90
24162;DHT22;12318;51.262;7.066;2022-08-19T13:23:08;25.80;99.90
24162;DHT22;12318;51.262;7.066;2022-08-19T13:25:34;25.70;99.90
24162;DHT22;12318;51.262;7.066;2022-08-19T13:28:01;25.50;99.90
24162;DHT22;12318;51.262;7.066;2022-08-19T13:30:27;25.50;99.90
24162;DHT22;12318;51.262;7.066;2022-08-19T13:33:12;25.50;99.90
24162;DHT22;12318;51.262;7.066;2022-08-19T13:38:09;25.40;99.90
24162;DHT22;12318;51.262;7.066;2022-08-19T13:40:36;25.10;99.90
24162;DHT22;12318;51.262;7.066;2022-08-19T13:43:03;25.00;99.90
24162;DHT22;12318;51.262;7.066;2022-08-19T13:45:32;25.20;99.90
24162;DHT22;12318;51.262;7.066;2022-08-19T13:48:01;25.30;99.90
24162;DHT22;12318;51.262;7.066;2022-08-19T13:50:30;25.40;99.90
24162;DHT22;12318;51.262;7.066;2022-08-19T13:52:57;25.60;99.90
24162;DHT22;12318;51.262;7.066;2022-08-19T13:55:23;25.90;99.90
24162;DHT22;12318;51.262;7.066;2022-08-19T13:58:05;26.00;99.40
24162;DHT22;12318;51.262;7.066;2022-08-19T14:00:40;26.10;99.20
24162;DHT22;12318;51.262;7.066;2022-08-19T14:03:06;26.20;98.90
24162;DHT22;12318;51.262;7.066;2022-08-19T14:05:32;25.90;99.60
24162;DHT22;12318;51.262;7.066;2022-08-19T14:07:59;25.80;99.50
24162;DHT22;12318;51.262;7.066;2022-08-19T14:10:25;25.80;99.90
24162;DHT22;12318;51.262;7.066;2022-08-19T14:12:56;25.80;99.80
24162;DHT22;12318;51.262;7.066;2022-08-19T14:15:24;25.80;99.60
24162;DHT22;12318;51.262;7.066;2022-08-19T14:17:53;25.80;98.30
24162;DHT22;12318;51.262;7.066;2022-08-19T14:20:20;25.80;99.50
24162;DHT22;12318;51.262;7.066;2022-08-19T14:22:47;25.80;98.40
24162;DHT22;12318;51.262;7.066;2022-08-19T14:25:17;26.00;98.70
24162;DHT22;12318;51.262;7.066;2022-08-19T14:27:43;26.00;98.00
24162;DHT22;12318;51.262;7.066;2022-08-19T14:30:13;26.10;97.50
24162;DHT22;12318;51.262;7.066;2022-08-19T14:32:40;26.00;98.10
24162;DHT22;12318;51.262;7.066;2022-08-19T14:35:06;25.90;98.00
24162;DHT22;12318;51.262;7.066;2022-08-19T14:37:39;25.90;98.00
24162;DHT22;12318;51.262;7.066;2022-08-19T14:40:05;26.00;97.20
24162;DHT22;12318;51.262;7.066;2022-08-19T14:42:31;26.10;97.00
24162;DHT22;12318;51.262;7.066;2022-08-19T14:44:58;26.10;96.60
24162;DHT22;12318;51.262;7.066;2022-08-19T14:47:24;26.10;97.30
24162;DHT22;12318;51.262;7.066;2022-08-19T14:50:03;26.10;97.30
24162;DHT22;12318;51.262;7.066;2022-08-19T14:52:29;25.90;96.90
24162;DHT22;12318;51.262;7.066;2022-08-19T14:54:54;26.00;97.30
24162;DHT22;12318;51.262;7.066;2022-08-19T14:57:20;26.10;97.00
24162;DHT22;12318;51.262;7.066;2022-08-19T14:59:48;26.30;96.50
24162;DHT22;12318;51.262;7.066;2022-08-19T15:02:14;26.40;96.20
24162;DHT22;12318;51.262;7.066;2022-08-19T15:04:43;26.30;96.30
24162;DHT22;12318;51.262;7.066;2022-08-19T15:07:09;26.00;97.30
24162;DHT22;12318;51.262;7.066;2022-08-19T15:09:35;26.00;97.90
24162;DHT22;12318;51.262;7.066;2022-08-19T15:12:01;26.10;98.00
24162;DHT22;12318;51.262;7.066;2022-08-19T15:14:28;26.20;98.10
24162;DHT22;12318;51.262;7.066;2022-08-19T15:16:58;26.20;96.90
24162;DHT22;12318;51.262;7.066;2022-08-19T15:19:26;26.10;97.20
24162;DHT22;12318;51.262;7.066;2022-08-19T15:21:52;26.00;97.00
24162;DHT22;12318;51.262;7.066;2022-08-19T15:24:20;25.90;97.20
24162;DHT22;12318;51.262;7.066;2022-08-19T15:26:46;25.80;97.20
24162;DHT22;12318;51.262;7.066;2022-08-19T15:29:12;25.70;97.40
24162;DHT22;12318;51.262;7.066;2022-08-19T15:31:39;25.50;96.70
24162;DHT22;12318;51.262;7.066;2022-08-19T15:34:05;25.60;96.80
24162;DHT22;12318;51.262;7.066;2022-08-19T15:36:41;25.80;96.60
24162;DHT22;12318;51.262;7.066;2022-08-19T15:39:06;26.20;96.90
24162;DHT22;12318;51.262;7.066;2022-08-19T15:41:34;26.30;96.10
24162;DHT22;12318;51.262;7.066;2022-08-19T15:44:05;26.90;96.00
24162;DHT22;12318;51.262;7.066;2022-08-19T15:46:35;27.20;95.60
24162;DHT22;12318;51.262;7.066;2022-08-19T15:49:04;27.60;95.80